createdAt,value
2017-11-30T00:00:50.304Z,30
2017-11-30T00:10:50.224Z,30
2017-11-30T00:20:50.191Z,30
2017-11-30T00:30:50.288Z,31
2017-11-30T00:40:50.224Z,31
2017-11-30T00:50:50.273Z,28
2017-11-30T01:00:50.215Z,28
2017-11-30T01:10:50.300Z,27
2017-11-30T01:20:50.322Z,28
2017-11-30T01:30:50.264Z,29
2017-11-30T01:40:50.222Z,28
2017-11-30T01:50:50.351Z,30
2017-11-30T02:00:50.238Z,28
2017-11-30T02:10:50.302Z,29
2017-11-30T02:20:50.268Z,30
2017-11-30T02:30:50.363Z,28
2017-11-30T02:40:50.274Z,26
2017-11-30T02:50:50.389Z,27
2017-11-30T03:00:50.324Z,30
2017-11-30T03:10:50.334Z,30
2017-11-30T03:20:50.346Z,28
2017-11-30T03:30:50.293Z,31
2017-11-30T03:40:50.404Z,29
2017-11-30T03:50:50.364Z,31
2017-11-30T04:00:50.458Z,27
2017-11-30T04:10:50.418Z,33
2017-11-30T04:20:50.425Z,29
2017-11-30T04:30:50.356Z,27
2017-11-30T04:40:50.450Z,27
2017-11-30T04:50:50.378Z,26
2017-11-30T05:00:50.505Z,29
2017-11-30T05:10:50.442Z,28
2017-11-30T05:20:50.414Z,29
2017-11-30T05:30:50.413Z,29
2017-11-30T05:40:50.408Z,30
2017-11-30T05:50:50.477Z,32
2017-11-30T06:00:50.416Z,34
2017-11-30T06:10:50.511Z,34
2017-11-30T06:20:50.501Z,36
2017-11-30T06:30:50.470Z,36
2017-11-30T06:40:50.516Z,38
2017-11-30T06:50:50.888Z,35
2017-11-30T07:00:50.631Z,36
2017-11-30T07:10:50.452Z,37
2017-11-30T07:20:50.420Z,40
2017-11-30T07:30:50.506Z,37
2017-11-30T07:40:50.382Z,39
2017-11-30T07:50:50.458Z,41
2017-11-30T08:00:50.452Z,40
2017-11-30T08:10:50.451Z,40
2017-11-30T08:20:50.478Z,37
2017-11-30T08:30:50.525Z,31
2017-11-30T08:40:50.505Z,30
2017-11-30T08:50:50.497Z,29
2017-11-30T09:00:50.588Z,30
2017-11-30T09:10:50.559Z,29
2017-11-30T09:20:50.529Z,26
2017-11-30T09:30:50.577Z,20
2017-11-30T09:40:50.635Z,23
2017-11-30T09:50:50.587Z,22
2017-11-30T10:00:50.519Z,23
2017-11-30T10:10:50.564Z,23
2017-11-30T10:20:50.549Z,22
2017-11-30T10:30:50.676Z,21
2017-11-30T10:40:50.605Z,21
2017-11-30T10:50:50.591Z,18
2017-11-30T11:00:50.589Z,18
2017-11-30T11:10:50.612Z,14
2017-11-30T11:20:51.091Z,11
2017-11-30T11:30:50.675Z,11
2017-11-30T11:40:50.750Z,11
2017-11-30T11:50:50.676Z,9
2017-11-30T12:00:50.738Z,8
2017-11-30T12:10:50.715Z,8
2017-11-30T12:20:50.981Z,11
2017-11-30T12:30:50.700Z,11
2017-11-30T12:40:50.710Z,10
2017-11-30T12:50:50.852Z,9
2017-11-30T13:00:50.716Z,9
2017-11-30T13:10:50.747Z,8
2017-11-30T13:20:50.779Z,8
2017-11-30T13:30:50.844Z,8
2017-11-30T13:40:51.051Z,10
2017-11-30T13:50:50.916Z,11
2017-11-30T14:00:50.841Z,9
2017-11-30T14:10:50.784Z,11
2017-11-30T14:20:50.844Z,10
2017-11-30T14:30:51.010Z,11
2017-11-30T14:40:50.904Z,11
2017-11-30T14:50:50.901Z,12
2017-11-30T15:00:50.806Z,13
2017-11-30T15:10:50.804Z,13
2017-11-30T15:20:50.847Z,15
2017-11-30T15:30:53.260Z,20
2017-11-30T15:40:50.929Z,17
2017-11-30T15:50:51.090Z,16
2017-11-30T16:00:51.143Z,14
2017-11-30T16:10:51.186Z,14
2017-11-30T16:20:50.950Z,5
2017-11-30T16:30:51.127Z,2
2017-11-30T16:40:50.817Z,2
2017-11-30T16:50:50.861Z,1
2017-11-30T17:00:50.888Z,1
2017-11-30T17:10:50.864Z,1
2017-11-30T17:20:50.826Z,1
2017-11-30T17:30:51.186Z,5
2017-11-30T17:40:51.284Z,2
2017-11-30T17:50:51.213Z,3
2017-11-30T18:00:51.261Z,4
2017-11-30T18:10:51.119Z,4
2017-11-30T18:20:51.155Z,4
2017-11-30T18:30:50.968Z,5
2017-11-30T18:40:51.194Z,4
2017-11-30T18:50:51.060Z,7
2017-11-30T19:00:51.132Z,6
2017-11-30T19:10:51.094Z,10
2017-11-30T19:20:51.135Z,12
2017-11-30T19:30:51.490Z,15
2017-11-30T19:40:51.561Z,16
2017-11-30T19:50:51.825Z,21
2017-11-30T20:00:52.157Z,23
2017-11-30T20:10:51.680Z,23
2017-11-30T20:20:51.460Z,24
2017-11-30T20:30:52.050Z,24
2017-11-30T20:40:51.438Z,25
2017-11-30T20:50:51.174Z,25
2017-11-30T21:00:52.805Z,27
2017-11-30T21:10:52.017Z,26
2017-11-30T21:20:54.294Z,25
2017-11-30T21:30:51.234Z,27
2017-11-30T21:40:51.624Z,26
2017-11-30T21:50:51.930Z,26
2017-11-30T22:00:52.235Z,25
2017-11-30T22:10:52.105Z,27
2017-11-30T22:20:51.665Z,25
2017-11-30T22:30:51.275Z,26
2017-11-30T22:40:51.301Z,26
2017-11-30T22:50:51.185Z,26
2017-11-30T23:00:51.284Z,25
2017-11-30T23:10:51.757Z,26
2017-11-30T23:20:51.700Z,25
2017-11-30T23:30:51.518Z,25
2017-11-30T23:40:51.223Z,26
2017-11-30T23:50:52.408Z,25
